QLK1985 YBBN-YWLM
Flight info
| Callsign | QLK1985 |
|---|---|
| Flight time | 1h 3m |
| Altitude | 38000 |
| Route | SANEG H91 SANAD/N0345F190 V779 LAXUM |
| Aircraft | E190/M-SDGHIRWYZ/EB1 |
Departure
| Time | 2026-05-07 07:36 |
|---|---|
| Airport | Brisbane International Airport (YBBN) |
Arrival
| Time | 2026-05-07 08:39 |
|---|---|
| Airport | Newcastle Airport (YWLM) |
| Time | Latitude | Longitude | Altitude | Speed | Heading |
|---|---|---|---|---|---|
| 2026-05-07 07:21 | -27.38364 | 153.12257 | 20 ft | 0 kts | 324° |
| 2026-05-07 07:28 | -27.38367 | 153.12259 | 21 ft | 3 kts | 324° |
| 2026-05-07 07:28 | -27.38389 | 153.12277 | 22 ft | 4 kts | 324° |
| 2026-05-07 07:28 | -27.38405 | 153.12289 | 20 ft | 4 kts | 341° |
| 2026-05-07 07:28 | -27.38425 | 153.12300 | 20 ft | 4 kts | 313° |
| 2026-05-07 07:29 | -27.38433 | 153.12323 | 20 ft | 2 kts | 271° |
| 2026-05-07 07:29 | -27.38433 | 153.12343 | 20 ft | 0 kts | 271° |
| 2026-05-07 07:31 | -27.38435 | 153.12338 | 20 ft | 2 kts | 256° |
| 2026-05-07 07:32 | -27.38451 | 153.12336 | 21 ft | 4 kts | 164° |
| 2026-05-07 07:32 | -27.38455 | 153.12380 | 20 ft | 9 kts | 86° |
| 2026-05-07 07:32 | -27.38454 | 153.12396 | 20 ft | 4 kts | 85° |
| 2026-05-07 07:32 | -27.38454 | 153.12461 | 20 ft | 13 kts | 88° |
| 2026-05-07 07:33 | -27.38377 | 153.12545 | 20 ft | 19 kts | 28° |
| 2026-05-07 07:33 | -27.38239 | 153.12621 | 21 ft | 25 kts | 27° |
| 2026-05-07 07:33 | -27.38066 | 153.12722 | 21 ft | 31 kts | 26° |
| 2026-05-07 07:33 | -27.37867 | 153.12836 | 21 ft | 33 kts | 27° |
| 2026-05-07 07:34 | -27.37663 | 153.12953 | 20 ft | 33 kts | 26° |
| 2026-05-07 07:34 | -27.37457 | 153.13071 | 20 ft | 33 kts | 27° |
| 2026-05-07 07:34 | -27.37286 | 153.13169 | 20 ft | 19 kts | 35° |
| 2026-05-07 07:34 | -27.37302 | 153.13296 | 20 ft | 19 kts | 118° |
| 2026-05-07 07:35 | -27.37380 | 153.13416 | 21 ft | 19 kts | 150° |
| 2026-05-07 07:35 | -27.37512 | 153.13404 | 21 ft | 24 kts | 205° |
| 2026-05-07 07:35 | -27.37854 | 153.13210 | 20 ft | 92 kts | 206° |
| 2026-05-07 07:35 | -27.38619 | 153.12763 | 47 ft | 153 kts | 210° |
| 2026-05-07 07:36 | -27.39637 | 153.12210 | 715 ft | 169 kts | 209° |
| 2026-05-07 07:36 | -27.40738 | 153.11595 | 1101 ft | 185 kts | 211° |
| 2026-05-07 07:36 | -27.41865 | 153.10943 | 2030 ft | 184 kts | 212° |
| 2026-05-07 07:36 | -27.43094 | 153.10473 | 2875 ft | 193 kts | 191° |
| 2026-05-07 07:37 | -27.44480 | 153.10743 | 3557 ft | 218 kts | 161° |
| 2026-05-07 07:37 | -27.45796 | 153.11690 | 4217 ft | 235 kts | 152° |
| 2026-05-07 07:37 | -27.47158 | 153.12807 | 4926 ft | 248 kts | 151° |
| 2026-05-07 07:37 | -27.48566 | 153.13980 | 5816 ft | 255 kts | 151° |
| 2026-05-07 07:38 | -27.50198 | 153.14897 | 6309 ft | 268 kts | 176° |
| 2026-05-07 07:38 | -27.52030 | 153.14779 | 7048 ft | 265 kts | 201° |
| 2026-05-07 07:38 | -27.53795 | 153.14173 | 7889 ft | 270 kts | 204° |
| 2026-05-07 07:38 | -27.55613 | 153.13487 | 8690 ft | 279 kts | 205° |
| 2026-05-07 07:39 | -27.57475 | 153.12754 | 9645 ft | 284 kts | 204° |
| 2026-05-07 07:39 | -27.59367 | 153.12020 | 10406 ft | 296 kts | 204° |
| 2026-05-07 07:39 | -27.61330 | 153.11251 | 11028 ft | 309 kts | 204° |
| 2026-05-07 07:39 | -27.63418 | 153.10490 | 11818 ft | 319 kts | 201° |
| 2026-05-07 07:40 | -27.65566 | 153.09797 | 12746 ft | 323 kts | 201° |
| 2026-05-07 07:40 | -27.67742 | 153.09080 | 13742 ft | 326 kts | 201° |
| 2026-05-07 07:40 | -27.69913 | 153.08361 | 14651 ft | 330 kts | 202° |
| 2026-05-07 07:40 | -27.72135 | 153.07623 | 15582 ft | 334 kts | 202° |
| 2026-05-07 07:41 | -27.74387 | 153.06872 | 16415 ft | 341 kts | 202° |
| 2026-05-07 07:41 | -27.76672 | 153.06109 | 17341 ft | 343 kts | 203° |
| 2026-05-07 07:41 | -27.78969 | 153.05342 | 18235 ft | 346 kts | 203° |
| 2026-05-07 07:41 | -27.81304 | 153.04562 | 18953 ft | 350 kts | 204° |
| 2026-05-07 07:42 | -27.83595 | 153.03722 | 19636 ft | 350 kts | 209° |
| 2026-05-07 07:42 | -27.85867 | 153.02684 | 20343 ft | 354 kts | 211° |
| 2026-05-07 07:42 | -27.88169 | 153.01649 | 21044 ft | 358 kts | 211° |
| 2026-05-07 07:42 | -27.90505 | 153.00607 | 21752 ft | 362 kts | 211° |
| 2026-05-07 07:43 | -27.92850 | 152.99568 | 22406 ft | 366 kts | 211° |
| 2026-05-07 07:43 | -27.95240 | 152.98514 | 23049 ft | 371 kts | 212° |
| 2026-05-07 07:43 | -27.97659 | 152.97446 | 23649 ft | 374 kts | 212° |
| 2026-05-07 07:43 | -27.99278 | 152.96733 | 23971 ft | 377 kts | 212° |
| 2026-05-07 07:44 | -28.01736 | 152.95650 | 24463 ft | 380 kts | 212° |
| 2026-05-07 07:44 | -28.05027 | 152.94199 | 25124 ft | 385 kts | 213° |
| 2026-05-07 07:44 | -28.06725 | 152.93451 | 25459 ft | 388 kts | 213° |
| 2026-05-07 07:44 | -28.10078 | 152.91971 | 25989 ft | 396 kts | 213° |
| 2026-05-07 07:45 | -28.11793 | 152.91206 | 26273 ft | 397 kts | 213° |
| 2026-05-07 07:45 | -28.14389 | 152.90054 | 26584 ft | 405 kts | 213° |
| 2026-05-07 07:45 | -28.17010 | 152.88895 | 27058 ft | 408 kts | 213° |
| 2026-05-07 07:45 | -28.19647 | 152.87722 | 27538 ft | 410 kts | 213° |
| 2026-05-07 07:46 | -28.22312 | 152.86534 | 28032 ft | 411 kts | 214° |
| 2026-05-07 07:46 | -28.24990 | 152.85342 | 28491 ft | 412 kts | 214° |
| 2026-05-07 07:46 | -28.27687 | 152.84143 | 28838 ft | 414 kts | 214° |
| 2026-05-07 07:46 | -28.30396 | 152.82937 | 29098 ft | 419 kts | 214° |
| 2026-05-07 07:47 | -28.33085 | 152.81753 | 29414 ft | 424 kts | 214° |
| 2026-05-07 07:47 | -28.35859 | 152.80504 | 29545 ft | 432 kts | 214° |
| 2026-05-07 07:47 | -28.38671 | 152.79250 | 29884 ft | 435 kts | 214° |
| 2026-05-07 07:47 | -28.41487 | 152.77992 | 30274 ft | 433 kts | 214° |
| 2026-05-07 07:48 | -28.44295 | 152.76732 | 30670 ft | 432 kts | 214° |
| 2026-05-07 07:48 | -28.47084 | 152.75494 | 31123 ft | 430 kts | 215° |
| 2026-05-07 07:48 | -28.49829 | 152.74272 | 31580 ft | 427 kts | 215° |
| 2026-05-07 07:48 | -28.52590 | 152.73039 | 32053 ft | 424 kts | 215° |
| 2026-05-07 07:49 | -28.55341 | 152.71798 | 32447 ft | 423 kts | 216° |
| 2026-05-07 07:49 | -28.58083 | 152.70573 | 32833 ft | 422 kts | 216° |
| 2026-05-07 07:49 | -28.60826 | 152.69348 | 33210 ft | 423 kts | 216° |
| 2026-05-07 07:49 | -28.63536 | 152.68134 | 33546 ft | 423 kts | 216° |
| 2026-05-07 07:50 | -28.66275 | 152.66901 | 33901 ft | 422 kts | 215° |
| 2026-05-07 07:50 | -28.69014 | 152.65679 | 34242 ft | 422 kts | 216° |
| 2026-05-07 07:50 | -28.71745 | 152.64455 | 34448 ft | 421 kts | 216° |
| 2026-05-07 07:50 | -28.74472 | 152.63230 | 34680 ft | 421 kts | 216° |
| 2026-05-07 07:51 | -28.77190 | 152.62007 | 34971 ft | 419 kts | 216° |
| 2026-05-07 07:51 | -28.79906 | 152.60786 | 35247 ft | 418 kts | 216° |
| 2026-05-07 07:51 | -28.82613 | 152.59567 | 35478 ft | 418 kts | 216° |
| 2026-05-07 07:51 | -28.85240 | 152.58303 | 35780 ft | 407 kts | 221° |
| 2026-05-07 07:52 | -28.87759 | 152.56840 | 36113 ft | 400 kts | 223° |
| 2026-05-07 07:52 | -28.92751 | 152.53854 | 36176 ft | 410 kts | 222° |
| 2026-05-07 07:53 | -28.97861 | 152.50824 | 36155 ft | 417 kts | 221° |
| 2026-05-07 07:53 | -29.03043 | 152.47769 | 36070 ft | 426 kts | 217° |
| 2026-05-07 07:53 | -29.05958 | 152.46720 | 36067 ft | 446 kts | 207° |
| 2026-05-07 07:54 | -29.08997 | 152.46031 | 36059 ft | 452 kts | 205° |
| 2026-05-07 07:54 | -29.15174 | 152.44639 | 35992 ft | 455 kts | 205° |
| 2026-05-07 07:55 | -29.21306 | 152.43226 | 36056 ft | 448 kts | 206° |
| 2026-05-07 07:55 | -29.27389 | 152.41803 | 36041 ft | 447 kts | 206° |
| 2026-05-07 07:56 | -29.33523 | 152.40379 | 36018 ft | 452 kts | 205° |
| 2026-05-07 07:56 | -29.39642 | 152.38971 | 36114 ft | 453 kts | 205° |
| 2026-05-07 07:57 | -29.45823 | 152.37492 | 36073 ft | 453 kts | 206° |
| 2026-05-07 07:57 | -29.52043 | 152.36076 | 36063 ft | 454 kts | 205° |
| 2026-05-07 07:58 | -29.58244 | 152.34650 | 36048 ft | 456 kts | 205° |
| 2026-05-07 07:58 | -29.64481 | 152.33212 | 36072 ft | 457 kts | 205° |
| 2026-05-07 07:59 | -29.70660 | 152.31752 | 36079 ft | 453 kts | 205° |
| 2026-05-07 07:59 | -29.76889 | 152.30316 | 36063 ft | 457 kts | 205° |
| 2026-05-07 08:00 | -29.83141 | 152.28883 | 36106 ft | 455 kts | 204° |
| 2026-05-07 08:00 | -29.89340 | 152.27445 | 36006 ft | 456 kts | 205° |
| 2026-05-07 08:01 | -29.95548 | 152.26021 | 36065 ft | 453 kts | 203° |
| 2026-05-07 08:01 | -30.01768 | 152.24623 | 36063 ft | 456 kts | 204° |
| 2026-05-07 08:02 | -30.07985 | 152.23212 | 36087 ft | 457 kts | 205° |
| 2026-05-07 08:02 | -30.14228 | 152.21756 | 36113 ft | 456 kts | 205° |
| 2026-05-07 08:03 | -30.20488 | 152.20309 | 36094 ft | 458 kts | 205° |
| 2026-05-07 08:03 | -30.26701 | 152.18850 | 36094 ft | 457 kts | 205° |
| 2026-05-07 08:04 | -30.32945 | 152.17376 | 36103 ft | 457 kts | 205° |
| 2026-05-07 08:04 | -30.39153 | 152.15915 | 36093 ft | 457 kts | 205° |
| 2026-05-07 08:05 | -30.45400 | 152.14436 | 36105 ft | 456 kts | 205° |
| 2026-05-07 08:05 | -30.51643 | 152.12958 | 36129 ft | 458 kts | 205° |
| 2026-05-07 08:06 | -30.57873 | 152.11480 | 36115 ft | 457 kts | 205° |
| 2026-05-07 08:06 | -30.64089 | 152.10005 | 36114 ft | 459 kts | 205° |
| 2026-05-07 08:07 | -30.70352 | 152.08514 | 36142 ft | 458 kts | 205° |
| 2026-05-07 08:07 | -30.76586 | 152.07040 | 36073 ft | 460 kts | 205° |
| 2026-05-07 08:08 | -30.82812 | 152.05559 | 36126 ft | 458 kts | 205° |
| 2026-05-07 08:08 | -30.89058 | 152.04064 | 36129 ft | 455 kts | 205° |
| 2026-05-07 08:09 | -30.95267 | 152.02592 | 36143 ft | 459 kts | 205° |
| 2026-05-07 08:09 | -31.01528 | 152.01096 | 36079 ft | 454 kts | 206° |
| 2026-05-07 08:10 | -31.07692 | 151.99628 | 36067 ft | 447 kts | 206° |
| 2026-05-07 08:10 | -31.13770 | 151.98164 | 36135 ft | 449 kts | 206° |
| 2026-05-07 08:11 | -31.19945 | 151.96677 | 36129 ft | 453 kts | 206° |
| 2026-05-07 08:11 | -31.26100 | 151.95199 | 36154 ft | 450 kts | 206° |
| 2026-05-07 08:12 | -31.32281 | 151.93707 | 36099 ft | 453 kts | 206° |
| 2026-05-07 08:12 | -31.38418 | 151.92232 | 36140 ft | 452 kts | 206° |
| 2026-05-07 08:13 | -31.44574 | 151.90734 | 35690 ft | 449 kts | 206° |
| 2026-05-07 08:13 | -31.47616 | 151.90018 | 35415 ft | 441 kts | 206° |
| 2026-05-07 08:13 | -31.50640 | 151.89287 | 34681 ft | 440 kts | 207° |
| 2026-05-07 08:13 | -31.53595 | 151.88588 | 34253 ft | 436 kts | 207° |
| 2026-05-07 08:14 | -31.56590 | 151.87862 | 33565 ft | 437 kts | 206° |
| 2026-05-07 08:14 | -31.59560 | 151.87149 | 32994 ft | 433 kts | 206° |
| 2026-05-07 08:14 | -31.62508 | 151.86434 | 32437 ft | 431 kts | 206° |
| 2026-05-07 08:14 | -31.65411 | 151.85733 | 31844 ft | 430 kts | 206° |
| 2026-05-07 08:15 | -31.68342 | 151.85024 | 31350 ft | 428 kts | 205° |
| 2026-05-07 08:15 | -31.71263 | 151.84314 | 30690 ft | 427 kts | 205° |
| 2026-05-07 08:15 | -31.74157 | 151.83611 | 30132 ft | 422 kts | 204° |
| 2026-05-07 08:15 | -31.76990 | 151.82929 | 29563 ft | 417 kts | 204° |
| 2026-05-07 08:16 | -31.79816 | 151.82230 | 29037 ft | 413 kts | 205° |
| 2026-05-07 08:16 | -31.82625 | 151.81513 | 28496 ft | 413 kts | 205° |
| 2026-05-07 08:16 | -31.85428 | 151.80796 | 27896 ft | 408 kts | 204° |
| 2026-05-07 08:16 | -31.88144 | 151.80108 | 27406 ft | 401 kts | 204° |
| 2026-05-07 08:17 | -31.90870 | 151.79441 | 26871 ft | 396 kts | 204° |
| 2026-05-07 08:17 | -31.93552 | 151.78789 | 26326 ft | 392 kts | 204° |
| 2026-05-07 08:17 | -31.96194 | 151.78132 | 25824 ft | 384 kts | 204° |
| 2026-05-07 08:17 | -31.98798 | 151.77489 | 25339 ft | 378 kts | 204° |
| 2026-05-07 08:18 | -32.01356 | 151.76857 | 24829 ft | 373 kts | 204° |
| 2026-05-07 08:18 | -32.03846 | 151.76241 | 24309 ft | 368 kts | 204° |
| 2026-05-07 08:18 | -32.06334 | 151.75645 | 23846 ft | 362 kts | 204° |
| 2026-05-07 08:18 | -32.08792 | 151.75045 | 23342 ft | 358 kts | 204° |
| 2026-05-07 08:19 | -32.11216 | 151.74449 | 22904 ft | 354 kts | 203° |
| 2026-05-07 08:19 | -32.13622 | 151.73840 | 22407 ft | 350 kts | 204° |
| 2026-05-07 08:19 | -32.16003 | 151.73230 | 21923 ft | 351 kts | 202° |
| 2026-05-07 08:19 | -32.18365 | 151.72682 | 21528 ft | 349 kts | 202° |
| 2026-05-07 08:20 | -32.20758 | 151.72089 | 21009 ft | 348 kts | 202° |
| 2026-05-07 08:20 | -32.23127 | 151.71511 | 20578 ft | 346 kts | 202° |
| 2026-05-07 08:20 | -32.25478 | 151.70933 | 20101 ft | 344 kts | 202° |
| 2026-05-07 08:20 | -32.27809 | 151.70352 | 19645 ft | 340 kts | 202° |
| 2026-05-07 08:21 | -32.30096 | 151.69792 | 19190 ft | 337 kts | 202° |
| 2026-05-07 08:21 | -32.32416 | 151.69324 | 18754 ft | 344 kts | 194° |
| 2026-05-07 08:21 | -32.34866 | 151.69621 | 18301 ft | 362 kts | 179° |
| 2026-05-07 08:21 | -32.37323 | 151.70354 | 17813 ft | 362 kts | 176° |
| 2026-05-07 08:22 | -32.39751 | 151.71100 | 17276 ft | 355 kts | 175° |
| 2026-05-07 08:22 | -32.42086 | 151.71812 | 16860 ft | 348 kts | 175° |
| 2026-05-07 08:22 | -32.44367 | 151.72928 | 16336 ft | 366 kts | 155° |
| 2026-05-07 08:22 | -32.46284 | 151.74998 | 15910 ft | 376 kts | 141° |
| 2026-05-07 08:23 | -32.48059 | 151.77281 | 15378 ft | 375 kts | 140° |
| 2026-05-07 08:23 | -32.49836 | 151.79531 | 14866 ft | 370 kts | 140° |
| 2026-05-07 08:23 | -32.51562 | 151.81704 | 14375 ft | 361 kts | 140° |
| 2026-05-07 08:23 | -32.53275 | 151.83843 | 13902 ft | 352 kts | 140° |
| 2026-05-07 08:24 | -32.54947 | 151.85922 | 13433 ft | 344 kts | 140° |
| 2026-05-07 08:24 | -32.56564 | 151.87963 | 13006 ft | 336 kts | 137° |
| 2026-05-07 08:24 | -32.57822 | 151.90318 | 12559 ft | 338 kts | 122° |
| 2026-05-07 08:24 | -32.58801 | 151.92824 | 12092 ft | 333 kts | 121° |
| 2026-05-07 08:25 | -32.59770 | 151.95271 | 11636 ft | 328 kts | 121° |
| 2026-05-07 08:25 | -32.60742 | 151.97699 | 11188 ft | 323 kts | 121° |
| 2026-05-07 08:25 | -32.61704 | 152.00089 | 10767 ft | 318 kts | 122° |
| 2026-05-07 08:25 | -32.62651 | 152.02453 | 10321 ft | 315 kts | 121° |
| 2026-05-07 08:26 | -32.64527 | 152.07092 | 9370 ft | 308 kts | 122° |
| 2026-05-07 08:26 | -32.65445 | 152.09364 | 9058 ft | 300 kts | 123° |
| 2026-05-07 08:26 | -32.66670 | 152.11229 | 8729 ft | 277 kts | 152° |
| 2026-05-07 08:27 | -32.68377 | 152.11991 | 8504 ft | 253 kts | 181° |
| 2026-05-07 08:27 | -32.70096 | 152.12031 | 8335 ft | 251 kts | 185° |
| 2026-05-07 08:27 | -32.71856 | 152.12043 | 8110 ft | 253 kts | 185° |
| 2026-05-07 08:27 | -32.73628 | 152.12066 | 7899 ft | 253 kts | 185° |
| 2026-05-07 08:28 | -32.75401 | 152.12096 | 7486 ft | 257 kts | 184° |
| 2026-05-07 08:28 | -32.77177 | 152.12114 | 6782 ft | 253 kts | 184° |
| 2026-05-07 08:28 | -32.78928 | 152.12174 | 6074 ft | 249 kts | 182° |
| 2026-05-07 08:28 | -32.80607 | 152.12244 | 5526 ft | 238 kts | 184° |
| 2026-05-07 08:29 | -32.82225 | 152.12300 | 5071 ft | 226 kts | 185° |
| 2026-05-07 08:29 | -32.83765 | 152.12347 | 4663 ft | 218 kts | 185° |
| 2026-05-07 08:29 | -32.85279 | 152.12385 | 4350 ft | 215 kts | 185° |
| 2026-05-07 08:29 | -32.86724 | 152.12425 | 4106 ft | 207 kts | 186° |
| 2026-05-07 08:30 | -32.88167 | 152.12446 | 3833 ft | 206 kts | 190° |
| 2026-05-07 08:30 | -32.89517 | 152.11995 | 3562 ft | 200 kts | 215° |
| 2026-05-07 08:30 | -32.90616 | 152.10993 | 3350 ft | 197 kts | 222° |
| 2026-05-07 08:30 | -32.91676 | 152.09984 | 3117 ft | 197 kts | 222° |
| 2026-05-07 08:31 | -32.92707 | 152.09006 | 3096 ft | 179 kts | 222° |
| 2026-05-07 08:31 | -32.93613 | 152.08136 | 3070 ft | 154 kts | 227° |
| 2026-05-07 08:31 | -32.94192 | 152.07189 | 3010 ft | 132 kts | 244° |
| 2026-05-07 08:31 | -32.94414 | 152.06179 | 2981 ft | 121 kts | 259° |
| 2026-05-07 08:32 | -32.94350 | 152.05195 | 2955 ft | 120 kts | 272° |
| 2026-05-07 08:32 | -32.94169 | 152.04556 | 2954 ft | 127 kts | 283° |
| 2026-05-07 08:32 | -32.93514 | 152.03371 | 3180 ft | 131 kts | 292° |
| 2026-05-07 08:32 | -32.92953 | 152.02457 | 3198 ft | 138 kts | 294° |
| 2026-05-07 08:33 | -32.92560 | 152.01860 | 3217 ft | 140 kts | 296° |
| 2026-05-07 08:33 | -32.91953 | 152.00952 | 3233 ft | 140 kts | 297° |
| 2026-05-07 08:33 | -32.91136 | 151.99736 | 3136 ft | 143 kts | 298° |
| 2026-05-07 08:33 | -32.90503 | 151.98817 | 2956 ft | 145 kts | 299° |
| 2026-05-07 08:34 | -32.90069 | 151.98203 | 2840 ft | 143 kts | 300° |
| 2026-05-07 08:34 | -32.89428 | 151.97302 | 2631 ft | 141 kts | 300° |
| 2026-05-07 08:34 | -32.88798 | 151.96416 | 2459 ft | 139 kts | 300° |
| 2026-05-07 08:34 | -32.88178 | 151.95547 | 2320 ft | 137 kts | 300° |
| 2026-05-07 08:35 | -32.87566 | 151.94685 | 2155 ft | 139 kts | 300° |
| 2026-05-07 08:35 | -32.86940 | 151.93806 | 1955 ft | 139 kts | 300° |
| 2026-05-07 08:35 | -32.86320 | 151.92939 | 1721 ft | 134 kts | 300° |
| 2026-05-07 08:35 | -32.85732 | 151.92122 | 1494 ft | 126 kts | 301° |
| 2026-05-07 08:36 | -32.85178 | 151.91344 | 1308 ft | 121 kts | 302° |
| 2026-05-07 08:36 | -32.84618 | 151.90559 | 1148 ft | 126 kts | 302° |
| 2026-05-07 08:36 | -32.84051 | 151.89755 | 1021 ft | 126 kts | 303° |
| 2026-05-07 08:36 | -32.83481 | 151.88956 | 850 ft | 126 kts | 302° |
| 2026-05-07 08:37 | -32.82928 | 151.88161 | 758 ft | 127 kts | 303° |
| 2026-05-07 08:37 | -32.82340 | 151.87328 | 589 ft | 132 kts | 307° |
| 2026-05-07 08:37 | -32.81740 | 151.86519 | 388 ft | 129 kts | 305° |
| 2026-05-07 08:37 | -32.81167 | 151.85687 | 232 ft | 132 kts | 307° |
| 2026-05-07 08:38 | -32.80583 | 151.84869 | 80 ft | 129 kts | 307° |
| 2026-05-07 08:38 | -32.80027 | 151.84082 | 28 ft | 110 kts | 310° |
| 2026-05-07 08:38 | -32.79610 | 151.83508 | 28 ft | 83 kts | 311° |
| 2026-05-07 08:38 | -32.79285 | 151.83055 | 32 ft | 52 kts | 312° |
| 2026-05-07 08:39 | -32.79181 | 151.82891 | 34 ft | 5 kts | 327° |
| 2026-05-07 08:39 | -32.79175 | 151.82915 | 34 ft | 4 kts | 110° |
| 2026-05-07 08:39 | -32.79217 | 151.82968 | 33 ft | 14 kts | 133° |
| 2026-05-07 08:39 | -32.79303 | 151.83083 | 32 ft | 23 kts | 131° |
| 2026-05-07 08:40 | -32.79427 | 151.83253 | 28 ft | 32 kts | 130° |
| 2026-05-07 08:40 | -32.79589 | 151.83479 | 27 ft | 40 kts | 131° |
| 2026-05-07 08:40 | -32.79777 | 151.83743 | 29 ft | 42 kts | 129° |
| 2026-05-07 08:40 | -32.79899 | 151.83861 | 30 ft | 13 kts | 176° |
| 2026-05-07 08:41 | -32.79995 | 151.83844 | 28 ft | 15 kts | 189° |
| 2026-05-07 08:41 | -32.80110 | 151.83823 | 27 ft | 18 kts | 185° |
| 2026-05-07 08:41 | -32.80220 | 151.83897 | 25 ft | 20 kts | 131° |
| 2026-05-07 08:41 | -32.80288 | 151.83991 | 28 ft | 15 kts | 130° |
| 2026-05-07 08:42 | -32.80308 | 151.84018 | 25 ft | 1 kts | 131° |
| 2026-05-07 08:42 | -32.80333 | 151.84052 | 27 ft | 9 kts | 131° |
| 2026-05-07 08:42 | -32.80382 | 151.84119 | 23 ft | 12 kts | 130° |
| 2026-05-07 08:42 | -32.80409 | 151.84159 | 22 ft | 0 kts | 130° |
| 2026-05-07 08:43 | -32.80415 | 151.84167 | 23 ft | 2 kts | 130° |
| 2026-05-07 08:43 | -32.80435 | 151.84179 | 25 ft | 3 kts | 169° |
| 2026-05-07 08:43 | -32.80446 | 151.84171 | 24 ft | 3 kts | 221° |
| 2026-05-07 08:43 | -32.80452 | 151.84151 | 24 ft | 3 kts | 255° |
| 2026-05-07 08:44 | -32.80453 | 151.84144 | 24 ft | 0 kts | 255° |
| 2026-05-07 08:45 | -32.80474 | 151.84142 | 21 ft | 0 kts | 236° |